Time;durP1;ratioP1;P1;durP2;ratioP2;P2;SDS_P1;SDS_P2;PMS_P1;PMS_P2;Temp;Humidity;BMP_temperature;BMP_pressure;BME280_temperature;BME280_humidity;BME280_pressure;Samples;Min_cycle;Max_cycle;Signal;HPM_P1;HPM_P2
2022/10/22 09:01:15;;;;;;;2.30;0.82;;;;;;;13.81;100.00;99046.69;5122347;27;20134;-76
2022/10/22 09:03:50;;;;;;;1.15;0.85;;;;;;;13.96;100.00;99054.69;5086584;28;20461;-76
2022/10/22 09:06:20;;;;;;;0.98;0.60;;;;;;;14.05;100.00;99051.75;5068143;28;20362;-76
2022/10/22 09:08:47;;;;;;;3.25;0.77;;;;;;;14.12;100.00;99045.22;5079705;28;20053;-76
2022/10/22 09:11:22;;;;;;;4.30;0.98;;;;;;;14.23;100.00;99043.75;5084957;28;20062;-76
2022/10/22 09:13:49;;;;;;;2.05;0.40;;;;;;;14.29;100.00;99042.06;5081723;28;20056;-76
2022/10/22 09:16:19;;;;;;;0.93;0.68;;;;;;;14.38;100.00;99032.59;5089069;28;20051;-76
2022/10/22 09:19:01;;;;;;;1.42;0.90;;;;;;;14.50;100.00;99036.34;5108043;28;20135;-76
2022/10/22 09:21:36;;;;;;;0.95;0.65;;;;;;;14.69;100.00;99053.81;5106467;28;20051;-76
2022/10/22 09:24:10;;;;;;;0.82;0.60;;;;;;;14.74;100.00;99049.56;5093793;28;20517;-76
2022/10/22 09:26:39;;;;;;;4.72;0.82;;;;;;;14.80;100.00;99056.94;5080908;28;20083;-76
2022/10/22 09:29:06;;;;;;;1.53;0.50;;;;;;;14.96;100.00;99055.59;5088877;28;20564;-76
2022/10/22 09:31:34;;;;;;;1.45;0.80;;;;;;;15.08;100.00;99058.50;5087447;28;20087;-76
2022/10/22 09:34:06;;;;;;;3.95;0.88;;;;;;;14.99;100.00;99041.47;5097327;28;20542;-76
2022/10/22 09:36:33;;;;;;;3.97;0.40;;;;;;;15.21;100.00;99064.75;5103556;28;20178;-76
2022/10/22 09:39:00;;;;;;;2.03;0.50;;;;;;;15.15;100.00;99057.41;5092806;28;20052;-76
2022/10/22 09:41:29;;;;;;;1.45;0.40;;;;;;;15.35;100.00;99073.75;5086176;28;20135;-77
2022/10/22 09:43:56;;;;;;;0.52;0.50;;;;;;;15.33;100.00;99069.56;5085088;28;20067;-76
2022/10/22 09:46:26;;;;;;;1.20;0.70;;;;;;;15.44;100.00;99084.47;5086984;28;20064;-76
2022/10/22 09:49:03;;;;;;;3.92;0.80;;;;;;;15.46;100.00;99072.25;5085905;28;20132;-76
2022/10/22 09:51:42;;;;;;;2.38;0.65;;;;;;;15.52;100.00;99073.25;5085565;28;20468;-76
2022/10/22 09:54:17;;;;;;;6.80;1.07;;;;;;;15.69;100.00;99095.50;5096817;28;20584;-76
2022/10/22 09:56:50;;;;;;;1.52;1.00;;;;;;;15.56;100.00;99071.75;5090383;28;20317;-76
2022/10/22 09:59:24;;;;;;;1.48;0.90;;;;;;;15.61;100.00;99079.31;5088089;28;20040;-76
2022/10/22 10:01:57;;;;;;;2.95;0.85;;;;;;;15.76;100.00;99085.31;5086581;28;20376;-76
2022/10/22 10:04:25;;;;;;;1.05;0.68;;;;;;;15.87;100.00;99100.28;5100142;28;20052;-76
2022/10/22 10:06:55;;;;;;;1.02;0.80;;;;;;;15.85;100.00;99110.59;5103136;28;20063;-76
2022/10/22 10:09:24;;;;;;;1.70;0.52;;;;;;;15.73;100.00;99103.06;5093234;28;20135;-76
2022/10/22 10:11:56;;;;;;;1.80;0.50;;;;;;;15.83;100.00;99113.56;5080270;28;20522;-77
2022/10/22 10:14:34;;;;;;;4.78;0.93;;;;;;;15.79;100.00;99090.41;5090907;28;20074;-76
2022/10/22 10:17:08;;;;;;;1.85;0.80;;;;;;;15.96;100.00;99090.72;5071520;28;20048;-77
2022/10/22 10:20:01;;;;;;;2.10;0.75;;;;;;;15.98;100.00;99098.72;5071807;28;20452;-77
2022/10/22 10:22:44;;;;;;;1.70;0.65;;;;;;;16.12;100.00;99119.47;5072726;28;20045;-77
2022/10/22 10:25:28;;;;;;;1.05;0.43;;;;;;;16.03;100.00;99113.47;5071416;28;20605;-76
2022/10/22 10:28:04;;;;;;;3.38;0.90;;;;;;;16.01;100.00;99107.34;5083821;28;20467;-76
2022/10/22 10:30:33;;;;;;;0.52;0.50;;;;;;;16.16;100.00;99117.97;5092784;28;20050;-76
2022/10/22 10:33:15;;;;;;;2.88;0.60;;;;;;;16.29;100.00;99130.78;5077819;28;20047;-76
2022/10/22 10:35:54;;;;;;;2.28;1.38;;;;;;;16.35;100.00;99120.78;5074069;28;20048;-76
2022/10/22 10:38:45;;;;;;;2.22;1.13;;;;;;;16.27;100.00;99106.31;5060430;28;20076;-76
2022/10/22 10:41:18;;;;;;;2.45;0.55;;;;;;;16.35;100.00;99113.41;5072638;28;20498;-76
2022/10/22 10:43:59;;;;;;;1.40;0.50;;;;;;;16.50;100.00;99126.78;5069989;28;20055;-76
2022/10/22 10:46:36;;;;;;;4.22;0.60;;;;;;;16.51;98.48;99139.44;5092886;28;20044;-76
2022/10/22 10:49:09;;;;;;;2.60;0.45;;;;;;;16.53;100.00;99117.25;5080510;28;20057;-76
2022/10/22 10:51:49;;;;;;;0.68;0.50;;;;;;;16.66;99.67;99130.84;5071097;28;20053;-76
2022/10/22 10:54:27;;;;;;;1.45;0.68;;;;;;;16.67;98.41;99118.00;5073852;28;20075;-76
2022/10/22 10:56:57;;;;;;;1.27;1.05;;;;;;;16.87;97.11;99132.38;5072655;28;20060;-77
2022/10/22 10:59:40;;;;;;;1.95;0.32;;;;;;;16.94;94.63;99137.81;5070997;28;20056;-76
2022/10/22 11:02:44;;;;;;;4.95;0.98;;;;;;;16.82;94.37;99121.22;5071713;28;20064;-76
2022/10/22 11:05:26;;;;;;;11.05;1.40;;;;;;;16.79;91.74;99132.66;5064068;28;20053;-76
2022/10/22 11:07:58;;;;;;;2.53;0.82;;;;;;;16.76;92.27;99116.63;5071028;28;20385;-76
2022/10/22 11:10:29;;;;;;;5.88;1.25;;;;;;;16.92;90.45;99128.94;5070628;28;20059;-76
2022/10/22 11:13:01;;;;;;;2.17;0.50;;;;;;;16.72;93.85;99115.41;5069974;28;20047;-76
2022/10/22 11:15:32;;;;;;;1.55;0.75;;;;;;;16.80;92.66;99115.09;5071967;28;20142;-77
2022/10/22 11:18:06;;;;;;;2.05;0.70;;;;;;;16.81;94.22;99112.13;5075221;28;20044;-77
2022/10/22 11:20:44;;;;;;;1.38;0.70;;;;;;;16.89;96.44;99105.56;5081119;28;20056;-77
2022/10/22 11:23:16;;;;;;;2.47;0.60;;;;;;;17.13;95.18;99134.00;5068240;28;20048;-77
2022/10/22 11:25:45;;;;;;;3.30;0.98;;;;;;;17.13;91.59;99114.78;5075304;28;20048;-77
2022/10/22 11:28:17;;;;;;;1.33;0.60;;;;;;;17.30;87.07;99139.72;5070593;28;20059;-77
2022/10/22 11:30:47;;;;;;;8.45;1.42;;;;;;;17.17;90.08;99110.50;5068447;28;20127;-77
2022/10/22 11:33:18;;;;;;;2.00;0.63;;;;;;;17.33;89.36;99127.44;5070917;28;20048;-77
2022/10/22 11:35:47;;;;;;;1.13;0.40;;;;;;;17.28;87.51;99108.91;5075652;28;20144;-76
2022/10/22 11:38:20;;;;;;;7.38;0.80;;;;;;;17.24;87.09;99096.69;5077279;28;20510;-76
2022/10/22 11:40:51;;;;;;;1.42;0.68;;;;;;;17.29;89.47;99099.56;5070876;28;20051;-77
2022/10/22 11:43:31;;;;;;;3.08;0.85;;;;;;;17.38;89.82;99107.53;5072619;28;21653;-76
2022/10/22 11:46:02;;;;;;;2.63;1.57;;;;;;;17.43;83.67;99100.28;5069816;28;20108;-76
2022/10/22 11:48:34;;;;;;;3.95;0.80;;;;;;;17.48;83.03;99094.91;5071373;28;20502;-76
2022/10/22 11:51:03;;;;;;;6.35;1.00;;;;;;;17.74;83.61;99114.03;5055892;28;20041;-76
2022/10/22 11:53:37;;;;;;;3.83;1.08;;;;;;;17.78;83.29;99112.47;5070481;28;20052;-76
2022/10/22 11:56:23;;;;;;;6.05;1.02;;;;;;;17.80;81.46;99110.34;5075753;28;20048;-76
2022/10/22 11:58:50;;;;;;;2.58;1.10;;;;;;;17.81;83.80;99101.84;5062278;28;20041;-76
2022/10/22 12:01:23;;;;;;;2.13;0.60;;;;;;;17.74;81.55;99090.09;5070669;28;20048;-77
2022/10/22 12:03:52;;;;;;;2.47;1.23;;;;;;;17.93;78.98;99110.19;5070494;28;20052;-76
2022/10/22 12:06:23;;;;;;;4.20;0.43;;;;;;;17.93;79.49;99101.06;5070922;28;20556;-76
2022/10/22 12:09:01;;;;;;;3.78;0.80;;;;;;;18.10;81.46;99112.25;5060964;28;20057;-77
2022/10/22 12:11:35;;;;;;;5.25;1.00;;;;;;;18.15;82.17;99118.72;5060663;28;20037;-76
2022/10/22 12:14:18;;;;;;;4.65;1.02;;;;;;;18.11;80.34;99095.53;5073214;28;20048;-76
2022/10/22 12:16:46;;;;;;;3.17;0.77;;;;;;;18.37;77.56;99108.00;5066243;28;20052;-76
2022/10/22 12:19:15;;;;;;;2.05;0.65;;;;;;;18.39;76.38;99113.25;5069007;28;20152;-76
2022/10/22 12:21:47;;;;;;;1.73;0.95;;;;;;;18.42;72.78;99109.19;5068568;28;20131;-76
2022/10/22 12:24:17;;;;;;;2.50;0.70;;;;;;;18.36;77.21;99095.28;5066936;28;20048;-76
2022/10/22 12:26:44;;;;;;;3.88;0.80;;;;;;;18.38;75.07;99095.91;5070090;28;20499;-76
2022/10/22 12:29:14;;;;;;;0.80;0.40;;;;;;;18.31;76.21;99083.34;5068428;28;20237;-76
2022/10/22 12:31:43;;;;;;;3.03;0.60;;;;;;;18.35;72.37;99093.66;5063669;28;20044;-76
2022/10/22 12:34:13;;;;;;;1.70;0.60;;;;;;;18.39;75.20;99094.00;5066556;28;20048;-76
2022/10/22 12:36:40;;;;;;;5.00;0.90;;;;;;;18.27;72.86;99093.97;5067877;28;20418;-76
2022/10/22 12:39:12;;;;;;;2.72;0.85;;;;;;;18.27;71.96;99084.91;5069186;28;20139;-76
2022/10/22 12:41:40;;;;;;;3.90;0.55;;;;;;;18.20;70.63;99069.34;5078710;28;20126;-76
2022/10/22 12:44:07;;;;;;;2.63;1.15;;;;;;;18.32;70.92;99063.84;5069962;28;20044;-76
2022/10/22 12:46:35;;;;;;;6.72;0.90;;;;;;;18.43;69.97;99066.81;5066156;28;20059;-76
2022/10/22 12:49:05;;;;;;;4.13;0.90;;;;;;;18.58;69.43;99089.22;5065530;28;20422;-77
2022/10/22 12:51:32;;;;;;;4.90;0.80;;;;;;;18.51;69.33;99069.22;5068095;28;20128;-76
2022/10/22 12:54:06;;;;;;;1.75;0.57;;;;;;;18.54;67.30;99082.50;5048124;28;20052;-76
2022/10/22 12:56:35;;;;;;;3.22;0.85;;;;;;;18.56;69.15;99064.69;5071505;28;20070;-76
2022/10/22 12:59:07;;;;;;;7.72;0.70;;;;;;;18.79;66.04;99078.66;5068389;28;20388;-76
2022/10/22 13:01:37;;;;;;;3.38;0.60;;;;;;;18.92;68.18;99079.31;5068612;28;20419;-77
2022/10/22 13:04:19;;;;;;;1.38;0.60;;;;;;;18.90;68.66;99075.94;5061466;28;20280;-76
2022/10/22 13:06:47;;;;;;;1.05;0.70;;;;;;;18.92;66.73;99064.69;5068375;28;20124;-76
2022/10/22 13:09:18;;;;;;;4.18;0.90;;;;;;;19.10;67.83;99075.56;5072834;28;20059;-77
2022/10/22 13:11:51;;;;;;;5.00;0.80;;;;;;;18.93;66.78;99055.34;5073993;28;20139;-77
2022/10/22 13:14:26;;;;;;;1.00;0.40;;;;;;;19.09;67.06;99078.56;5067911;28;20049;-76
2022/10/22 13:17:07;;;;;;;5.63;0.77;;;;;;;19.08;65.25;99077.69;5068658;28;20075;-76
2022/10/22 13:19:44;;;;;;;11.20;0.80;;;;;;;19.09;63.69;99071.13;5068460;28;20049;-76
2022/10/22 13:22:26;;;;;;;3.45;0.63;;;;;;;19.01;65.34;99060.47;5060827;28;20045;-77
2022/10/22 13:24:54;;;;;;;1.05;0.57;;;;;;;19.20;66.73;99080.44;5069459;28;20044;-77
2022/10/22 13:27:22;;;;;;;5.97;0.90;;;;;;;19.14;64.57;99073.16;5068326;28;20052;-77
2022/10/22 13:29:50;;;;;;;3.08;0.60;;;;;;;19.09;64.15;99051.00;5068396;28;20053;-77
2022/10/22 13:32:27;;;;;;;2.42;0.50;;;;;;;19.40;64.65;99079.19;5065789;28;20175;-77
2022/10/22 13:34:55;;;;;;;0.85;0.50;;;;;;;19.41;62.96;99069.84;5067992;28;20059;-77
2022/10/22 13:37:22;;;;;;;1.85;0.38;;;;;;;19.20;64.78;99049.28;5068199;28;20511;-77
2022/10/22 13:39:49;;;;;;;3.67;0.88;;;;;;;19.38;66.52;99071.16;5074890;28;20053;-76
2022/10/22 13:42:15;;;;;;;2.40;0.80;;;;;;;19.47;65.52;99068.84;5063627;28;20131;-76
2022/10/22 13:44:42;;;;;;;2.38;0.55;;;;;;;19.28;61.70;99057.16;5067908;28;20410;-77
2022/10/22 13:47:24;;;;;;;1.52;0.30;;;;;;;19.32;64.96;99052.00;5070641;28;20059;-77
2022/10/22 13:49:52;;;;;;;4.75;1.42;;;;;;;19.48;64.57;99064.16;5071897;28;20048;-76
2022/10/22 13:52:28;;;;;;;3.08;1.00;;;;;;;19.52;66.17;99057.09;5071341;28;20139;-77
2022/10/22 13:54:55;;;;;;;9.90;1.15;;;;;;;19.49;64.09;99069.44;5077208;28;20054;-77
2022/10/22 13:57:21;;;;;;;6.88;0.80;;;;;;;19.44;65.30;99059.16;5071260;28;20063;-77
2022/10/22 13:59:48;;;;;;;3.92;0.60;;;;;;;19.42;66.68;99064.06;5070395;28;20044;-77
2022/10/22 14:02:17;;;;;;;3.20;0.82;;;;;;;19.52;66.37;99065.34;5070392;28;20480;-77
2022/10/22 14:04:43;;;;;;;3.87;0.60;;;;;;;19.44;65.84;99050.88;5071504;28;20063;-77
2022/10/22 14:07:13;;;;;;;4.65;0.85;;;;;;;19.31;66.78;99042.06;5069758;28;20061;-77
2022/10/22 14:09:40;;;;;;;;;;;;;;;19.46;69.24;99058.91;5077067;28;20040;-77
2022/10/22 14:12:11;;;;;;;3.58;0.52;;;;;;;19.44;67.25;99058.31;5071032;28;19930;-76
2022/10/22 14:14:38;;;;;;;2.35;0.73;;;;;;;19.45;67.03;99048.94;5071381;28;20075;-77
2022/10/22 14:17:05;;;;;;;1.70;0.60;;;;;;;19.47;66.78;99055.06;5066539;28;20055;-76
2022/10/22 14:19:33;;;;;;;3.13;1.10;;;;;;;19.54;67.91;99065.94;5073486;28;20040;-77
2022/10/22 14:22:00;;;;;;;2.25;0.50;;;;;;;19.45;68.13;99054.47;5073330;28;20071;-77
2022/10/22 14:24:29;;;;;;;3.20;0.70;;;;;;;19.47;68.28;99066.09;5072370;28;20048;-77
2022/10/22 14:26:56;;;;;;;1.80;0.70;;;;;;;19.44;67.88;99061.91;5072343;28;20049;-77
2022/10/22 14:29:22;;;;;;;3.40;0.70;;;;;;;19.30;67.60;99054.16;5071511;28;20079;-77
2022/10/22 14:31:49;;;;;;;4.75;0.73;;;;;;;19.42;69.57;99047.53;5067423;28;20139;-76
2022/10/22 14:34:16;;;;;;;7.47;1.38;;;;;;;19.39;69.83;99045.28;5068968;28;20052;-76
2022/10/22 14:36:44;;;;;;;3.08;0.77;;;;;;;19.43;69.46;99062.97;5068713;28;20049;-77
2022/10/22 14:39:10;;;;;;;1.65;0.60;;;;;;;19.34;67.52;99055.34;5071415;28;20062;-76
2022/10/22 14:41:37;;;;;;;0.57;0.45;;;;;;;19.33;68.67;99061.94;5070555;28;20450;-76
2022/10/22 14:44:04;;;;;;;1.60;0.55;;;;;;;19.13;70.78;99071.47;5070347;28;20050;-76
2022/10/22 14:46:31;;;;;;;0.70;0.43;;;;;;;19.09;71.80;99062.84;5070759;28;20056;-77
2022/10/22 14:48:57;;;;;;;0.65;0.57;;;;;;;19.08;70.68;99066.69;5069261;28;20044;-76
2022/10/22 14:51:24;;;;;;;2.85;0.55;;;;;;;18.89;72.38;99067.91;5070463;28;20051;-77
2022/10/22 14:53:51;;;;;;;1.50;0.70;;;;;;;18.86;69.94;99066.50;5069692;28;20075;-77
2022/10/22 14:56:20;;;;;;;2.78;0.98;;;;;;;18.79;72.33;99070.41;5070698;28;20510;-76
2022/10/22 14:58:47;;;;;;;3.53;0.60;;;;;;;18.82;73.32;99075.44;5070583;28;20057;-77
2022/10/22 15:01:14;;;;;;;3.65;0.70;;;;;;;18.74;74.16;99072.00;5070776;28;20049;-76
2022/10/22 15:03:40;;;;;;;0.93;0.60;;;;;;;18.65;73.17;99070.69;5070011;28;20424;-77
2022/10/22 15:06:07;;;;;;;2.72;0.77;;;;;;;18.50;75.02;99045.53;5071997;28;20052;-77
2022/10/22 15:08:34;;;;;;;3.13;1.35;;;;;;;18.72;76.00;99074.13;5072003;28;20484;-77
2022/10/22 15:11:03;;;;;;;3.88;0.75;;;;;;;18.62;75.34;99068.38;5070458;28;20052;-76
2022/10/22 15:13:30;;;;;;;1.13;0.52;;;;;;;18.56;74.05;99050.06;5069578;28;20044;-77
2022/10/22 15:15:57;;;;;;;3.53;0.63;;;;;;;18.38;75.17;99051.88;5070395;28;20041;-77
2022/10/22 15:18:24;;;;;;;1.90;0.68;;;;;;;18.41;76.18;99067.06;5070335;28;20070;-76
2022/10/22 15:20:58;;;;;;;2.53;0.88;;;;;;;18.32;76.45;99077.59;5068522;28;20055;-77
2022/10/22 15:23:26;;;;;;;1.30;0.35;;;;;;;18.21;77.81;99070.16;5063263;28;20053;-77
2022/10/22 15:25:52;;;;;;;1.60;0.60;;;;;;;18.19;77.32;99064.91;5067858;28;20495;-77
2022/10/22 15:28:20;;;;;;;1.65;0.45;;;;;;;18.16;78.62;99064.53;5072392;28;20052;-77
2022/10/22 15:30:52;;;;;;;4.65;0.75;;;;;;;18.11;79.83;99068.00;5069725;28;20463;-76
2022/10/22 15:33:18;;;;;;;4.57;1.25;;;;;;;18.14;81.33;99077.69;5069925;28;20055;-77
2022/10/22 15:35:45;;;;;;;1.90;0.65;;;;;;;18.06;82.70;99080.78;5070064;28;20048;-77
2022/10/22 15:38:11;;;;;;;1.05;0.73;;;;;;;17.92;84.73;99077.41;5068945;28;20243;-77
2022/10/22 15:40:38;;;;;;;4.47;0.85;;;;;;;17.72;85.21;99073.03;5073078;28;20055;-77
2022/10/22 15:43:04;;;;;;;4.53;0.73;;;;;;;17.66;87.46;99079.47;5069221;28;20045;-77
2022/10/22 15:45:32;;;;;;;1.35;0.70;;;;;;;17.49;88.91;99074.59;5061852;28;20060;-77
2022/10/22 15:47:59;;;;;;;4.45;0.95;;;;;;;17.24;90.12;99060.97;5061666;28;20434;-77
2022/10/22 15:50:25;;;;;;;7.10;1.38;;;;;;;17.19;92.39;99076.47;5061107;28;20494;-77
2022/10/22 15:52:53;;;;;;;5.28;0.68;;;;;;;17.03;93.28;99077.94;5069518;28;20051;-77
2022/10/22 15:55:19;;;;;;;3.67;1.05;;;;;;;16.95;94.46;99084.56;5068144;28;20048;-77
2022/10/22 15:57:46;;;;;;;6.70;0.80;;;;;;;16.67;96.98;99068.59;5068289;28;20053;-76
2022/10/22 16:00:13;;;;;;;6.50;1.08;;;;;;;16.46;99.73;99068.78;5069647;28;20141;-76
2022/10/22 16:02:41;;;;;;;7.03;1.10;;;;;;;16.31;100.00;99081.16;5068337;28;20056;-76
2022/10/22 16:05:09;;;;;;;7.32;0.85;;;;;;;16.26;100.00;99090.06;5067758;28;20057;-76
2022/10/22 16:07:35;;;;;;;1.33;0.80;;;;;;;16.12;100.00;99083.84;5071874;28;20127;-76
2022/10/22 16:10:02;;;;;;;2.95;0.88;;;;;;;16.01;100.00;99085.41;5065558;28;20407;-77
2022/10/22 16:12:39;;;;;;;1.85;0.75;;;;;;;15.84;100.00;99081.53;5065666;28;20055;-76
2022/10/22 16:15:07;;;;;;;5.88;1.02;;;;;;;15.73;100.00;99077.53;5069793;28;20574;-76
2022/10/22 16:17:34;;;;;;;2.10;0.90;;;;;;;15.57;100.00;99077.00;5062641;28;20048;-76
2022/10/22 16:20:02;;;;;;;2.85;0.85;;;;;;;15.57;100.00;99079.75;5063008;28;20487;-77
2022/10/22 16:22:28;;;;;;;2.72;0.85;;;;;;;15.51;100.00;99088.84;5071153;28;20040;-76
2022/10/22 16:24:55;;;;;;;3.60;0.93;;;;;;;15.29;100.00;99071.06;5068810;28;20055;-76
2022/10/22 16:27:21;;;;;;;5.13;1.02;;;;;;;15.22;100.00;99076.56;5072592;28;20052;-77
2022/10/22 16:29:48;;;;;;;12.80;0.90;;;;;;;15.02;100.00;99062.94;5073743;28;20128;-76
2022/10/22 16:32:15;;;;;;;5.43;2.70;;;;;;;14.99;100.00;99074.34;5067475;28;20132;-75
2022/10/22 16:34:41;;;;;;;6.95;3.00;;;;;;;14.95;100.00;99075.81;5061092;28;20479;-75
2022/10/22 16:37:09;;;;;;;5.18;2.20;;;;;;;14.90;100.00;99086.56;5070184;28;20072;-75
2022/10/22 16:39:36;;;;;;;3.45;1.65;;;;;;;14.66;100.00;99078.00;5073239;28;20406;-75
2022/10/22 16:42:02;;;;;;;7.07;1.00;;;;;;;14.57;100.00;99060.09;5061765;28;20040;-75
2022/10/22 16:44:29;;;;;;;10.05;1.08;;;;;;;14.56;100.00;99067.47;5073954;28;20124;-75
2022/10/22 16:46:56;;;;;;;5.25;1.10;;;;;;;14.59;100.00;99075.25;5069722;28;20051;-75
2022/10/22 16:49:22;;;;;;;3.60;0.70;;;;;;;14.55;100.00;99092.31;5068635;28;20045;-75
2022/10/22 16:51:49;;;;;;;7.85;1.00;;;;;;;14.38;100.00;99075.47;5059218;28;20048;-75
2022/10/22 16:54:17;;;;;;;7.95;1.10;;;;;;;14.38;100.00;99097.34;5066354;28;20528;-75
2022/10/22 16:56:43;;;;;;;3.97;1.10;;;;;;;14.37;100.00;99098.44;5073963;28;20052;-75
2022/10/22 16:59:10;;;;;;;3.17;1.15;;;;;;;14.34;100.00;99105.97;5070508;28;20044;-75
2022/10/22 17:01:36;;;;;;;5.00;2.05;;;;;;;14.29;100.00;99107.69;5067783;28;20044;-75
2022/10/22 17:04:03;;;;;;;4.13;1.10;;;;;;;14.26;100.00;99108.09;5071015;28;20098;-75
2022/10/22 17:06:29;;;;;;;3.97;1.13;;;;;;;14.26;100.00;99116.31;5071479;28;20419;-75
2022/10/22 17:08:56;;;;;;;6.35;1.13;;;;;;;14.19;100.00;99110.81;5069581;28;20051;-75
2022/10/22 17:11:24;;;;;;;6.07;0.93;;;;;;;14.12;100.00;99120.91;5074922;28;20056;-75
2022/10/22 17:13:53;;;;;;;4.78;0.93;;;;;;;14.16;100.00;99117.53;5067299;28;20051;-75
2022/10/22 17:16:21;;;;;;;2.60;1.38;;;;;;;14.07;100.00;99110.59;5081159;28;20048;-75
2022/10/22 17:18:48;;;;;;;4.40;2.40;;;;;;;14.06;100.00;99099.88;5068111;28;20067;-75
2022/10/22 17:21:16;;;;;;;5.32;1.08;;;;;;;14.24;100.00;99108.31;5076586;28;20044;-75
2022/10/22 17:23:43;;;;;;;16.23;1.50;;;;;;;14.29;100.00;99107.69;5072673;28;20050;-75
2022/10/22 17:26:14;;;;;;;5.00;0.90;;;;;;;14.33;100.00;99117.13;5072589;28;20132;-75
2022/10/22 17:28:42;;;;;;;6.95;1.25;;;;;;;14.20;100.00;99111.69;5073913;28;20389;-75
2022/10/22 17:31:14;;;;;;;2.63;1.13;;;;;;;14.05;100.00;99103.69;5052972;28;20072;-76
2022/10/22 17:33:41;;;;;;;8.18;1.73;;;;;;;14.20;100.00;99119.88;5063916;28;20414;-75
2022/10/22 17:36:10;;;;;;;5.35;1.48;;;;;;;14.19;100.00;99113.56;5070068;28;20410;-75
2022/10/22 17:38:44;;;;;;;1.13;0.90;;;;;;;14.18;100.00;99119.25;5066416;28;20049;-76
2022/10/22 17:41:19;;;;;;;4.72;1.00;;;;;;;14.12;100.00;99124.50;5071289;28;20309;-76
2022/10/22 17:43:47;;;;;;;4.38;1.58;;;;;;;13.97;100.00;99121.97;5070843;28;20086;-76
2022/10/22 17:46:22;;;;;;;2.95;0.80;;;;;;;13.92;100.00;99132.66;5073942;28;20059;-75
2022/10/22 17:48:50;;;;;;;2.85;1.00;;;;;;;14.01;100.00;99132.47;5071064;28;20091;-76
2022/10/22 17:51:17;;;;;;;6.72;1.13;;;;;;;13.93;100.00;99130.78;5071372;28;20048;-76
2022/10/22 17:53:44;;;;;;;6.07;1.10;;;;;;;13.97;100.00;99138.34;5060986;28;20048;-76
2022/10/22 17:56:13;;;;;;;5.03;1.20;;;;;;;13.83;100.00;99133.06;5069900;28;20082;-76
2022/10/22 17:58:39;;;;;;;2.53;0.80;;;;;;;13.68;100.00;99131.34;5075563;28;20106;-76
2022/10/22 18:01:17;;;;;;;3.72;0.90;;;;;;;13.76;100.00;99139.38;5071116;28;20148;-75
2022/10/22 18:03:44;;;;;;;2.13;0.82;;;;;;;13.85;100.00;99147.34;5069353;28;20040;-76
2022/10/22 18:06:10;;;;;;;4.85;1.02;;;;;;;13.74;100.00;99133.25;5071355;28;20052;-76
2022/10/22 18:08:37;;;;;;;4.82;1.08;;;;;;;13.86;100.00;99149.88;5069662;28;20127;-76
2022/10/22 18:11:06;;;;;;;7.07;1.00;;;;;;;13.71;100.00;99138.28;5075215;28;20400;-75
2022/10/22 18:13:33;;;;;;;3.33;1.00;;;;;;;13.84;100.00;99152.00;5064257;28;20346;-75
2022/10/22 18:16:00;;;;;;;4.63;0.80;;;;;;;13.77;100.00;99146.50;5070729;28;20082;-75
2022/10/22 18:18:28;;;;;;;5.35;0.90;;;;;;;13.76;100.00;99153.03;5072609;28;20128;-76
2022/10/22 18:20:54;;;;;;;5.70;1.02;;;;;;;13.71;100.00;99144.59;5070678;28;20495;-76
2022/10/22 18:23:21;;;;;;;18.85;2.85;;;;;;;13.65;100.00;99141.84;5069667;28;20052;-76
2022/10/22 18:25:49;;;;;;;4.68;1.17;;;;;;;13.60;100.00;99145.19;5069415;28;20381;-76
2022/10/22 18:28:18;;;;;;;4.55;1.10;;;;;;;13.56;100.00;99144.75;5065877;28;20495;-76
2022/10/22 18:30:45;;;;;;;5.32;0.90;;;;;;;13.54;100.00;99129.63;5069990;28;20052;-76
2022/10/22 18:33:14;;;;;;;1.48;0.93;;;;;;;13.40;100.00;99124.13;5067845;28;20048;-75
2022/10/22 18:35:42;;;;;;;9.55;1.10;;;;;;;13.43;100.00;99128.34;5070344;28;20135;-75
2022/10/22 18:38:09;;;;;;;2.42;1.00;;;;;;;13.47;100.00;99135.06;5070405;28;20055;-75
2022/10/22 18:40:36;;;;;;;5.60;1.13;;;;;;;13.51;100.00;99139.06;5069655;28;20132;-76
2022/10/22 18:43:02;;;;;;;7.97;1.33;;;;;;;13.26;100.00;99111.41;5073142;28;20419;-75
2022/10/22 18:45:29;;;;;;;2.03;1.10;;;;;;;13.32;100.00;99109.78;5064477;28;20067;-76
2022/10/22 18:47:57;;;;;;;1.40;0.80;;;;;;;13.37;100.00;99134.59;5074302;28;20519;-75
2022/10/22 18:50:24;;;;;;;3.40;1.00;;;;;;;13.23;100.00;99128.22;5070019;28;20044;-76
2022/10/22 18:52:52;;;;;;;8.57;1.20;;;;;;;13.35;100.00;99133.97;5067448;28;20057;-75
2022/10/22 18:55:18;;;;;;;4.45;1.02;;;;;;;13.33;100.00;99131.41;5070676;28;20052;-76
2022/10/22 18:57:45;;;;;;;4.20;1.23;;;;;;;13.40;100.00;99142.41;5070227;28;20059;-76
2022/10/22 19:00:13;;;;;;;5.88;1.30;;;;;;;13.41;100.00;99134.00;5070669;28;20048;-75
2022/10/22 19:02:39;;;;;;;4.50;0.95;;;;;;;13.32;100.00;99123.41;5066184;28;20541;-75
2022/10/22 19:05:07;;;;;;;2.13;1.10;;;;;;;13.23;100.00;99118.16;5068125;28;20045;-76
2022/10/22 19:07:35;;;;;;;5.95;1.08;;;;;;;13.19;100.00;99116.03;5069087;28;20048;-76
2022/10/22 19:10:03;;;;;;;4.78;1.30;;;;;;;13.09;100.00;99108.19;5070700;28;20132;-76
2022/10/22 19:12:30;;;;;;;4.07;1.10;;;;;;;12.93;100.00;99093.88;5069504;28;20044;-75
2022/10/22 19:14:56;;;;;;;4.93;1.10;;;;;;;12.88;100.00;99098.22;5070225;28;20052;-76
2022/10/22 19:17:23;;;;;;;9.20;2.72;;;;;;;13.05;100.00;99124.16;5066402;28;20044;-76
2022/10/22 19:19:49;;;;;;;10.05;5.43;;;;;;;13.03;100.00;99131.69;5069212;28;20048;-76
2022/10/22 19:22:16;;;;;;;10.25;4.15;;;;;;;12.90;100.00;99109.78;5069465;28;20052;-75
2022/10/22 19:24:42;;;;;;;13.48;6.15;;;;;;;12.88;100.00;99123.63;5069279;28;20210;-76
2022/10/22 19:27:10;;;;;;;11.90;3.78;;;;;;;12.91;100.00;99131.41;5069754;28;20512;-76
2022/10/22 19:29:37;;;;;;;8.85;4.30;;;;;;;12.79;100.00;99124.00;5069696;28;20298;-76
2022/10/22 19:32:03;;;;;;;11.88;2.55;;;;;;;12.72;100.00;99118.47;5069940;28;20052;-75
2022/10/22 19:34:30;;;;;;;5.65;2.28;;;;;;;12.73;100.00;99126.47;5069191;28;20052;-76
2022/10/22 19:36:56;;;;;;;8.70;2.08;;;;;;;12.74;100.00;99132.78;5069266;28;20068;-76
2022/10/22 19:39:23;;;;;;;6.65;1.58;;;;;;;12.69;100.00;99121.59;5069148;28;20048;-75
2022/10/22 19:41:49;;;;;;;3.10;1.65;;;;;;;12.70;100.00;99131.50;5069636;28;20064;-76
2022/10/22 19:44:18;;;;;;;6.30;1.70;;;;;;;12.80;100.00;99131.97;5067792;28;20045;-76
2022/10/22 19:46:45;;;;;;;3.35;1.42;;;;;;;12.73;100.00;99129.19;5067579;28;20076;-75
2022/10/22 19:49:11;;;;;;;7.00;1.95;;;;;;;12.55;100.00;99102.41;5060909;28;20094;-76
2022/10/22 19:51:39;;;;;;;4.93;1.65;;;;;;;12.71;100.00;99128.56;5069189;28;20052;-75
2022/10/22 19:54:07;;;;;;;8.80;2.00;;;;;;;12.68;100.00;99125.41;5067055;28;20059;-75
2022/10/22 19:56:36;;;;;;;3.75;2.35;;;;;;;12.78;100.00;99119.56;5069948;28;20421;-75
2022/10/22 19:59:03;;;;;;;6.18;2.72;;;;;;;12.69;100.00;99122.47;5069694;28;20105;-75
2022/10/22 20:01:31;;;;;;;7.47;3.85;;;;;;;12.65;100.00;99115.72;5067964;28;20048;-75
2022/10/22 20:03:59;;;;;;;15.00;3.05;;;;;;;12.72;100.00;99130.25;5060952;28;20044;-76
2022/10/22 20:06:25;;;;;;;10.35;2.38;;;;;;;12.56;100.00;99125.09;5065800;28;20041;-76
2022/10/22 20:08:52;;;;;;;6.65;2.78;;;;;;;12.49;100.00;99116.84;5064199;28;20091;-76
2022/10/22 20:11:20;;;;;;;16.13;2.47;;;;;;;12.57;100.00;99132.25;5065004;28;20140;-76
2022/10/22 20:13:47;;;;;;;6.88;1.52;;;;;;;12.53;100.00;99126.34;5066182;28;20049;-76
2022/10/22 20:16:15;;;;;;;2.58;1.60;;;;;;;12.43;100.00;99120.38;5068117;28;20045;-76
2022/10/22 20:18:43;;;;;;;11.85;1.90;;;;;;;12.53;100.00;99136.41;5065022;28;20040;-76
2022/10/22 20:21:13;;;;;;;6.38;1.50;;;;;;;12.43;100.00;99136.75;5069946;28;20052;-76
2022/10/22 20:23:40;;;;;;;;;;;;;;;12.44;100.00;99138.44;5070264;28;20044;-76
2022/10/22 20:26:07;;;;;;;4.60;1.50;;;;;;;12.37;100.00;99135.66;5070876;28;19920;-76
2022/10/22 20:28:33;;;;;;;4.55;1.45;;;;;;;12.33;100.00;99134.38;5068300;28;20053;-75
2022/10/22 20:31:00;;;;;;;7.55;1.20;;;;;;;12.35;100.00;99143.19;5068366;28;20056;-76
2022/10/22 20:33:26;;;;;;;5.22;1.40;;;;;;;12.36;100.00;99147.59;5067205;28;20058;-76
2022/10/22 20:36:01;;;;;;;18.40;1.73;;;;;;;12.27;100.00;99148.78;5068596;28;20064;-76
2022/10/22 20:38:28;;;;;;;2.65;1.30;;;;;;;12.31;100.00;99146.50;5065099;28;20052;-75
2022/10/22 20:41:00;;;;;;;5.63;1.27;;;;;;;12.18;100.00;99147.25;5061837;28;20044;-76